createdAt,value
2023-07-17T00:01:09.978Z,99769.59
2023-07-17T00:03:37.961Z,99761.62
2023-07-17T00:06:05.862Z,99761.97
2023-07-17T00:08:33.468Z,99769.81
2023-07-17T00:11:01.162Z,99772.94
2023-07-17T00:13:28.657Z,99776.91
2023-07-17T00:15:56.071Z,99779.69
2023-07-17T00:18:23.759Z,99779.75
2023-07-17T00:20:51.177Z,99774.94
2023-07-17T00:23:18.596Z,99785.69
2023-07-17T00:25:46.499Z,99780.78
2023-07-17T00:28:13.912Z,99784.84
2023-07-17T00:30:41.990Z,99787.22
2023-07-17T00:33:10.427Z,99788.25
2023-07-17T00:35:38.037Z,99787.25
2023-07-17T00:38:05.490Z,99788.44
2023-07-17T00:40:33.855Z,99788.06
2023-07-17T00:43:02.067Z,99791.47
2023-07-17T00:45:33.297Z,99797.78
2023-07-17T00:48:03.919Z,99792.66
2023-07-17T00:50:31.631Z,99795.37
2023-07-17T00:52:59.083Z,99793.00
2023-07-17T00:55:27.039Z,99792.00
2023-07-17T00:57:54.732Z,99801.66
2023-07-17T01:00:24.259Z,99785.72
2023-07-17T01:02:53.736Z,99787.41
2023-07-17T01:05:21.368Z,99795.22
2023-07-17T01:07:48.903Z,99784.22
2023-07-17T01:10:16.762Z,99788.75
2023-07-17T01:12:44.608Z,99796.09
2023-07-17T01:15:12.176Z,99793.38
2023-07-17T01:17:40.181Z,99786.28
2023-07-17T01:20:10.751Z,99786.47
2023-07-17T01:22:55.552Z,99787.97
2023-07-17T01:25:23.400Z,99780.19
2023-07-17T01:27:51.073Z,99782.41
2023-07-17T01:30:18.733Z,99773.72
2023-07-17T01:32:46.512Z,99779.53
2023-07-17T01:35:14.342Z,99775.47
2023-07-17T01:37:43.893Z,99771.75
2023-07-17T01:40:15.090Z,99767.38
2023-07-17T01:42:42.541Z,99770.75
2023-07-17T01:45:11.235Z,99765.66
2023-07-17T01:47:39.015Z,99770.91
2023-07-17T01:50:07.103Z,99778.16
2023-07-17T01:52:34.598Z,99784.91
2023-07-17T01:55:02.336Z,99780.22
2023-07-17T01:57:30.611Z,99781.53
2023-07-17T01:59:58.030Z,99781.72
2023-07-17T02:02:27.038Z,99782.56
2023-07-17T02:04:55.404Z,99787.13
2023-07-17T02:07:22.906Z,99800.38
2023-07-17T02:09:50.348Z,99800.47
2023-07-17T02:12:19.638Z,99800.34
2023-07-17T02:14:47.200Z,99806.22
2023-07-17T02:17:14.704Z,99816.00
2023-07-17T02:19:42.563Z,99810.94
2023-07-17T02:22:10.036Z,99817.69
2023-07-17T02:24:37.558Z,99818.34
2023-07-17T02:27:05.618Z,99814.78
2023-07-17T02:29:33.824Z,99817.00
2023-07-17T02:32:01.349Z,99830.22
2023-07-17T02:34:29.933Z,99830.88
2023-07-17T02:36:57.575Z,99836.47
2023-07-17T02:39:25.022Z,99844.41
2023-07-17T02:41:52.927Z,99849.47
2023-07-17T02:44:20.953Z,99863.16
2023-07-17T02:46:48.613Z,99846.09
2023-07-17T02:49:16.525Z,99858.81
2023-07-17T02:51:43.976Z,99855.41
2023-07-17T02:54:11.999Z,99856.06
2023-07-17T02:56:39.747Z,99852.84
2023-07-17T02:59:07.276Z,99847.06
2023-07-17T03:01:34.922Z,99844.69
2023-07-17T03:04:02.865Z,99851.13
2023-07-17T03:06:30.437Z,99855.16
2023-07-17T03:08:57.849Z,99852.38
2023-07-17T03:11:25.557Z,99853.50
2023-07-17T03:13:53.017Z,99857.00
2023-07-17T03:16:20.533Z,99850.75
2023-07-17T03:18:48.353Z,99847.41
2023-07-17T03:21:17.130Z,99855.69
2023-07-17T03:23:44.915Z,99854.13
2023-07-17T03:26:12.612Z,99854.66
2023-07-17T03:28:40.796Z,99846.06
2023-07-17T03:31:10.774Z,99846.81
2023-07-17T03:33:40.736Z,99839.81
2023-07-17T03:36:08.244Z,99851.78
2023-07-17T03:38:35.823Z,99857.00
2023-07-17T03:41:04.323Z,99844.34
2023-07-17T03:43:31.816Z,99842.81
2023-07-17T03:45:59.225Z,99847.06
2023-07-17T03:48:27.487Z,99844.38
2023-07-17T03:50:55.399Z,99842.34
2023-07-17T03:53:22.809Z,99841.69
2023-07-17T03:55:51.749Z,99841.94
2023-07-17T03:58:19.206Z,99849.84
2023-07-17T04:00:46.687Z,99854.97
2023-07-17T04:03:14.756Z,99837.41
2023-07-17T04:05:43.033Z,99842.09
2023-07-17T04:08:10.599Z,99856.31
2023-07-17T04:10:38.316Z,99849.94
2023-07-17T04:13:05.926Z,99848.06
2023-07-17T04:15:36.292Z,99847.56
2023-07-17T04:18:04.425Z,99849.44
2023-07-17T04:20:32.086Z,99841.13
2023-07-17T04:22:59.732Z,99842.63
2023-07-17T04:25:27.497Z,99844.00
2023-07-17T04:27:54.975Z,99845.38
2023-07-17T04:30:23.876Z,99839.66
2023-07-17T04:32:54.469Z,99846.38
2023-07-17T04:35:22.095Z,99849.41
2023-07-17T04:37:50.456Z,99857.38
2023-07-17T04:40:18.760Z,99850.25
2023-07-17T04:42:48.018Z,99852.69
2023-07-17T04:45:16.813Z,99851.13
2023-07-17T04:47:44.612Z,99852.75
2023-07-17T04:50:13.027Z,99850.66
2023-07-17T04:52:40.549Z,99852.47
2023-07-17T04:55:08.886Z,99857.28
2023-07-17T04:57:36.485Z,99843.34
2023-07-17T05:00:06.717Z,99845.62
2023-07-17T05:02:34.527Z,99845.84
2023-07-17T05:05:02.024Z,99843.28
2023-07-17T05:07:29.666Z,99850.78
2023-07-17T05:09:58.048Z,99849.50
2023-07-17T05:12:25.477Z,99853.69
2023-07-17T05:14:53.212Z,99853.50
2023-07-17T05:17:22.034Z,99847.87
2023-07-17T05:19:49.583Z,99844.88
2023-07-17T05:22:17.163Z,99843.59
2023-07-17T05:24:45.580Z,99847.94
2023-07-17T05:27:13.079Z,99841.53
2023-07-17T05:29:40.550Z,99841.78
2023-07-17T05:32:08.384Z,99845.03
2023-07-17T05:34:35.874Z,99843.16
2023-07-17T05:37:04.621Z,99845.19
2023-07-17T05:39:33.131Z,99846.06
2023-07-17T05:42:00.724Z,99839.59
2023-07-17T05:44:28.198Z,99842.66
2023-07-17T05:46:56.579Z,99839.53
2023-07-17T05:49:24.397Z,99843.22
2023-07-17T05:51:51.907Z,99841.06
2023-07-17T05:54:19.729Z,99844.72
2023-07-17T05:56:47.221Z,99846.53
2023-07-17T05:59:14.880Z,99845.38
2023-07-17T06:01:43.067Z,99845.66
2023-07-17T06:04:10.993Z,99847.72
2023-07-17T06:06:38.476Z,99850.22
2023-07-17T06:09:05.911Z,99846.00
2023-07-17T06:11:33.619Z,99848.31
2023-07-17T06:14:01.276Z,99858.91
2023-07-17T06:16:28.813Z,99851.75
2023-07-17T06:18:57.207Z,99851.66
2023-07-17T06:21:24.686Z,99837.88
2023-07-17T06:23:52.378Z,99833.91
2023-07-17T06:26:20.144Z,99841.44
2023-07-17T06:28:48.583Z,99833.28
2023-07-17T06:31:16.339Z,99845.53
2023-07-17T06:33:44.317Z,99845.75
2023-07-17T06:36:11.785Z,99835.88
2023-07-17T06:38:39.354Z,99838.19
2023-07-17T06:41:07.169Z,99841.13
2023-07-17T06:43:34.793Z,99834.63
2023-07-17T06:46:02.431Z,99841.97
2023-07-17T06:48:30.228Z,99840.72
2023-07-17T06:50:57.824Z,99838.63
2023-07-17T06:53:25.269Z,99837.16
2023-07-17T06:56:00.664Z,99835.91
2023-07-17T06:58:28.701Z,99830.59
2023-07-17T07:00:58.323Z,99827.91
2023-07-17T07:03:27.562Z,99825.34
2023-07-17T07:05:56.403Z,99816.78
2023-07-17T07:08:27.889Z,99823.88
2023-07-17T07:10:57.105Z,99825.72
2023-07-17T07:13:25.501Z,99826.56
2023-07-17T07:15:53.102Z,99827.78
2023-07-17T07:18:21.462Z,99829.53
2023-07-17T07:20:52.630Z,99827.91
2023-07-17T07:23:21.055Z,99824.38
2023-07-17T07:25:48.916Z,99822.81
2023-07-17T07:28:16.514Z,99824.22
2023-07-17T07:30:44.008Z,99818.84
2023-07-17T07:33:12.181Z,99810.19
2023-07-17T07:35:44.700Z,99814.81
2023-07-17T07:38:12.415Z,99819.16
2023-07-17T07:40:40.583Z,99819.63
2023-07-17T07:43:08.065Z,99809.50
2023-07-17T07:45:35.879Z,99810.75
2023-07-17T07:48:03.657Z,99808.94
2023-07-17T07:50:34.903Z,99808.75
2023-07-17T07:53:03.546Z,99815.88
2023-07-17T07:55:31.110Z,99810.25
2023-07-17T07:57:58.697Z,99807.72
2023-07-17T08:00:26.568Z,99819.25
2023-07-17T08:02:56.191Z,99806.03
2023-07-17T08:05:23.959Z,99812.16
2023-07-17T08:07:51.420Z,99813.03
2023-07-17T08:10:19.313Z,99810.53
2023-07-17T08:12:47.035Z,99808.53
2023-07-17T08:15:14.577Z,99811.72
2023-07-17T08:17:42.397Z,99812.56
2023-07-17T08:20:10.346Z,99804.78
2023-07-17T08:22:38.000Z,99800.59
2023-07-17T08:25:06.512Z,99796.69
2023-07-17T08:27:34.306Z,99796.81
2023-07-17T08:30:01.921Z,99798.09
2023-07-17T08:32:29.689Z,99807.34
2023-07-17T08:34:57.571Z,99807.53
2023-07-17T08:37:25.127Z,99803.81
2023-07-17T08:39:52.910Z,99802.72
2023-07-17T08:42:20.369Z,99808.13
2023-07-17T08:44:47.864Z,99811.56
2023-07-17T08:47:15.846Z,99809.50
2023-07-17T08:49:44.154Z,99814.81
2023-07-17T08:52:12.303Z,99818.34
2023-07-17T08:54:40.219Z,99812.97
2023-07-17T08:57:07.979Z,99808.44
2023-07-17T08:59:36.125Z,99808.22
2023-07-17T09:02:05.334Z,99807.62
2023-07-17T09:04:34.261Z,99811.09
2023-07-17T09:07:01.770Z,99808.28
2023-07-17T09:09:29.629Z,99806.47
2023-07-17T09:12:10.380Z,99811.97
2023-07-17T09:14:39.082Z,99803.44
2023-07-17T09:17:09.269Z,99816.88
2023-07-17T09:19:37.429Z,99799.78
2023-07-17T09:22:06.799Z,99800.31
2023-07-17T09:24:36.077Z,99796.28
2023-07-17T09:27:09.933Z,99798.22
2023-07-17T09:29:42.792Z,99802.47
2023-07-17T09:32:19.942Z,99788.13
2023-07-17T09:35:05.383Z,99796.38
2023-07-17T09:37:34.056Z,99800.41
2023-07-17T09:40:08.473Z,99793.66
2023-07-17T09:42:36.441Z,99790.50
2023-07-17T09:45:04.810Z,99791.53
2023-07-17T09:47:33.122Z,99794.78
2023-07-17T09:50:02.471Z,99782.13
2023-07-17T09:52:31.428Z,99793.91
2023-07-17T09:55:01.990Z,99785.72
2023-07-17T09:57:30.222Z,99789.56
2023-07-17T10:00:15.424Z,99784.59
2023-07-17T10:02:52.221Z,99777.38
2023-07-17T10:05:20.040Z,99787.87
2023-07-17T10:07:49.593Z,99789.88
2023-07-17T10:10:17.322Z,99773.66
2023-07-17T10:12:45.894Z,99778.94
2023-07-17T10:15:15.350Z,99777.44
2023-07-17T10:17:43.092Z,99775.62
2023-07-17T10:20:12.185Z,99770.28
2023-07-17T10:22:46.431Z,99765.97
2023-07-17T10:25:20.005Z,99762.00
2023-07-17T10:27:51.451Z,99762.25
2023-07-17T10:30:23.899Z,99761.25
2023-07-17T10:33:18.317Z,99759.44
2023-07-17T10:35:48.798Z,99760.03
2023-07-17T10:38:30.579Z,99747.28
2023-07-17T10:41:13.637Z,99741.75
2023-07-17T10:44:01.796Z,99740.47
2023-07-17T10:46:39.025Z,99740.47
2023-07-17T10:49:10.716Z,99739.78
2023-07-17T10:51:39.110Z,99745.66
2023-07-17T10:54:06.792Z,99740.53
2023-07-17T10:56:34.362Z,99738.81
2023-07-17T10:59:02.791Z,99737.19
2023-07-17T11:01:31.887Z,99738.72
2023-07-17T11:03:59.655Z,99734.00
2023-07-17T11:06:28.365Z,99734.53
2023-07-17T11:08:56.499Z,99739.00
2023-07-17T11:11:24.004Z,99734.22
2023-07-17T11:13:54.055Z,99725.94
2023-07-17T11:16:22.999Z,99728.69
2023-07-17T11:18:53.751Z,99719.25
2023-07-17T11:21:23.967Z,99723.91
2023-07-17T11:23:53.630Z,99724.28
2023-07-17T11:26:29.199Z,99713.25
2023-07-17T11:28:58.298Z,99707.28
2023-07-17T11:31:30.795Z,99702.53
2023-07-17T11:34:00.360Z,99701.56
2023-07-17T11:36:33.170Z,99685.44
2023-07-17T11:39:21.672Z,99684.09
2023-07-17T11:41:49.144Z,99683.69
2023-07-17T11:44:22.148Z,99678.19
2023-07-17T11:46:49.602Z,99671.75
2023-07-17T11:49:17.423Z,99671.66
2023-07-17T11:51:47.740Z,99675.97
2023-07-17T11:54:15.389Z,99664.66
2023-07-17T11:56:44.798Z,99665.66
2023-07-17T11:59:19.206Z,99659.16
2023-07-17T12:01:47.704Z,99660.59
2023-07-17T12:04:25.710Z,99664.31
2023-07-17T12:06:59.714Z,99657.16
2023-07-17T12:09:27.983Z,99646.25
2023-07-17T12:11:56.538Z,99646.69
2023-07-17T12:14:24.021Z,99644.66
2023-07-17T12:16:51.832Z,99654.34
2023-07-17T12:19:20.293Z,99638.34
2023-07-17T12:21:49.688Z,99634.84
2023-07-17T12:24:17.504Z,99637.84
2023-07-17T12:26:44.979Z,99634.94
2023-07-17T12:29:12.496Z,99632.09
2023-07-17T12:31:40.307Z,99641.47
2023-07-17T12:34:09.084Z,99628.81
2023-07-17T12:36:36.727Z,99630.78
2023-07-17T12:39:15.606Z,99640.91
2023-07-17T12:41:43.554Z,99649.59
2023-07-17T12:44:11.814Z,99645.47
2023-07-17T12:46:39.602Z,99633.69
2023-07-17T12:49:07.260Z,99634.44
2023-07-17T12:51:36.042Z,99638.91
2023-07-17T12:54:03.891Z,99629.38
2023-07-17T12:56:32.720Z,99638.00
2023-07-17T12:59:00.641Z,99642.69
2023-07-17T13:01:28.346Z,99644.34
2023-07-17T13:03:56.374Z,99641.75
2023-07-17T13:06:27.041Z,99636.75
2023-07-17T13:08:54.571Z,99635.06
2023-07-17T13:11:22.790Z,99625.44
2023-07-17T13:13:51.589Z,99627.91
2023-07-17T13:16:19.785Z,99626.25
2023-07-17T13:18:47.556Z,99630.88
2023-07-17T13:21:15.389Z,99632.38
2023-07-17T13:23:42.834Z,99625.63
2023-07-17T13:26:10.608Z,99628.47
2023-07-17T13:28:38.434Z,99615.78
2023-07-17T13:31:10.434Z,99618.72
2023-07-17T13:33:39.145Z,99625.50
2023-07-17T13:36:07.416Z,99626.66
2023-07-17T13:38:35.171Z,99625.91
2023-07-17T13:41:03.640Z,99634.13
2023-07-17T13:43:31.125Z,99654.91
2023-07-17T13:45:58.594Z,99649.25
2023-07-17T13:48:26.398Z,99652.84
2023-07-17T13:50:53.900Z,99652.47
2023-07-17T13:53:21.493Z,99653.06
2023-07-17T13:55:49.351Z,99651.78
2023-07-17T13:58:17.112Z,99650.06
2023-07-17T14:00:44.892Z,99643.25
2023-07-17T14:03:12.727Z,99654.75
2023-07-17T14:05:40.465Z,99677.00
2023-07-17T14:08:07.956Z,99672.56
2023-07-17T14:10:35.771Z,99675.81
2023-07-17T14:13:03.988Z,99678.66
2023-07-17T14:15:31.651Z,99680.41
2023-07-17T14:17:59.594Z,99672.87
2023-07-17T14:20:27.091Z,99668.88
2023-07-17T14:22:54.607Z,99678.06
2023-07-17T14:25:24.908Z,99678.00
2023-07-17T14:27:52.485Z,99696.41
2023-07-17T14:30:20.170Z,99716.47
2023-07-17T14:32:48.261Z,99719.37
2023-07-17T14:35:15.841Z,99731.28
2023-07-17T14:37:43.530Z,99716.28
2023-07-17T14:40:11.676Z,99715.19
2023-07-17T14:42:39.176Z,99711.84
2023-07-17T14:45:07.119Z,99718.22
2023-07-17T14:47:35.063Z,99715.12
2023-07-17T14:50:05.347Z,99714.25
2023-07-17T14:52:33.261Z,99715.94
2023-07-17T14:55:01.047Z,99716.06
2023-07-17T14:57:28.513Z,99712.41
2023-07-17T14:59:56.007Z,99718.16
2023-07-17T15:02:23.814Z,99709.78
2023-07-17T15:04:51.270Z,99698.75
2023-07-17T15:07:18.830Z,99697.31
2023-07-17T15:09:46.813Z,99685.84
2023-07-17T15:12:14.621Z,99675.72
2023-07-17T15:14:42.091Z,99672.94
2023-07-17T15:17:09.952Z,99670.00
2023-07-17T15:19:42.049Z,99662.47
2023-07-17T15:22:10.743Z,99662.84
2023-07-17T15:24:38.300Z,99675.75
2023-07-17T15:27:06.933Z,99667.09
2023-07-17T15:29:35.070Z,99676.66
2023-07-17T15:32:03.725Z,99679.56
2023-07-17T15:34:31.163Z,99679.03
2023-07-17T15:36:58.904Z,99681.69
2023-07-17T15:39:26.431Z,99678.47
2023-07-17T15:41:54.128Z,99684.12
2023-07-17T15:44:22.108Z,99683.47
2023-07-17T15:46:50.619Z,99698.38
2023-07-17T15:49:18.061Z,99698.69
2023-07-17T15:51:45.882Z,99693.78
2023-07-17T15:54:13.419Z,99706.09
2023-07-17T15:56:40.842Z,99705.97
2023-07-17T15:59:08.622Z,99715.97
2023-07-17T16:01:36.243Z,99706.34
2023-07-17T16:04:04.161Z,99713.69
2023-07-17T16:06:31.714Z,99719.16
2023-07-17T16:08:59.148Z,99725.50
2023-07-17T16:11:27.718Z,99729.91
2023-07-17T16:13:55.261Z,99727.06
2023-07-17T16:16:22.777Z,99726.31
2023-07-17T16:18:50.552Z,99732.22
2023-07-17T16:21:18.287Z,99727.97
2023-07-17T16:23:45.730Z,99726.78
2023-07-17T16:26:13.450Z,99726.63
2023-07-17T16:28:40.942Z,99728.59
2023-07-17T16:31:08.671Z,99723.97
2023-07-17T16:33:36.502Z,99732.59
2023-07-17T16:36:04.135Z,99737.59
2023-07-17T16:38:31.790Z,99738.34
2023-07-17T16:40:59.615Z,99751.56
2023-07-17T16:43:27.059Z,99749.47
2023-07-17T16:45:54.735Z,99752.88
2023-07-17T16:48:22.559Z,99743.44
2023-07-17T16:50:50.029Z,99743.19
2023-07-17T16:53:17.573Z,99753.25
2023-07-17T16:55:45.403Z,99760.91
2023-07-17T16:58:15.213Z,99760.03
2023-07-17T17:00:42.710Z,99756.84
2023-07-17T17:03:10.655Z,99758.13
2023-07-17T17:05:38.421Z,99750.69
2023-07-17T17:08:06.067Z,99749.87
2023-07-17T17:10:34.730Z,99750.50
2023-07-17T17:13:02.197Z,99762.25
2023-07-17T17:15:30.986Z,99756.22
2023-07-17T17:17:58.813Z,99749.72
2023-07-17T17:20:26.515Z,99754.03
2023-07-17T17:22:55.980Z,99750.94
2023-07-17T17:25:23.870Z,99761.09
2023-07-17T17:27:51.402Z,99755.84
2023-07-17T17:30:20.833Z,99756.72
2023-07-17T17:32:48.601Z,99761.12
2023-07-17T17:35:16.350Z,99760.75
2023-07-17T17:37:45.070Z,99759.69
2023-07-17T17:40:13.435Z,99762.25
2023-07-17T17:42:40.943Z,99764.78
2023-07-17T17:45:11.128Z,99766.47
2023-07-17T17:47:38.917Z,99767.28
2023-07-17T17:50:06.867Z,99768.59
2023-07-17T17:52:37.484Z,99770.69
2023-07-17T17:55:05.832Z,99777.84
2023-07-17T17:57:33.411Z,99782.25
2023-07-17T18:00:01.006Z,99780.78
2023-07-17T18:02:30.973Z,99785.59
2023-07-17T18:04:58.738Z,99788.34
2023-07-17T18:07:26.280Z,99787.87
2023-07-17T18:09:53.707Z,99784.16
2023-07-17T18:12:21.538Z,99794.84
2023-07-17T18:14:49.002Z,99794.03
2023-07-17T18:17:17.176Z,99796.75
2023-07-17T18:19:45.037Z,99812.53
2023-07-17T18:22:12.853Z,99804.53
2023-07-17T18:24:41.053Z,99803.06
2023-07-17T18:27:08.944Z,99809.53
2023-07-17T18:29:36.982Z,99810.59
2023-07-17T18:32:04.836Z,99810.37
2023-07-17T18:34:33.297Z,99820.63
2023-07-17T18:37:01.051Z,99823.78
2023-07-17T18:39:28.961Z,99826.09
2023-07-17T18:41:58.107Z,99826.91
2023-07-17T18:44:25.538Z,99835.91
2023-07-17T18:46:53.178Z,99825.00
2023-07-17T18:49:21.971Z,99831.97
2023-07-17T18:51:49.496Z,99833.19
2023-07-17T18:54:17.185Z,99829.97
2023-07-17T18:56:45.179Z,99835.59
2023-07-17T18:59:20.647Z,99832.22
2023-07-17T19:01:58.466Z,99819.16
2023-07-17T19:04:26.901Z,99824.78
2023-07-17T19:06:55.699Z,99828.72
2023-07-17T19:09:25.745Z,99839.69
2023-07-17T19:11:54.960Z,99835.44
2023-07-17T19:14:25.357Z,99835.28
2023-07-17T19:16:53.009Z,99839.38
2023-07-17T19:19:20.811Z,99846.19
2023-07-17T19:21:48.625Z,99851.53
2023-07-17T19:24:16.023Z,99834.56
2023-07-17T19:26:43.734Z,99827.38
2023-07-17T19:29:11.530Z,99834.84
2023-07-17T19:31:39.187Z,99841.72
2023-07-17T19:34:06.823Z,99843.22
2023-07-17T19:36:36.088Z,99840.31
2023-07-17T19:39:03.913Z,99840.00
2023-07-17T19:41:31.419Z,99833.16
2023-07-17T19:43:59.840Z,99826.41
2023-07-17T19:46:27.822Z,99821.75
2023-07-17T19:48:55.739Z,99824.25
2023-07-17T19:51:23.596Z,99828.97
2023-07-17T19:53:51.138Z,99825.69
2023-07-17T19:56:18.826Z,99831.19
2023-07-17T19:58:47.020Z,99844.47
2023-07-17T20:01:14.477Z,99840.09
2023-07-17T20:03:42.650Z,99844.62
2023-07-17T20:06:14.594Z,99841.66
2023-07-17T20:08:42.577Z,99848.09
2023-07-17T20:11:10.014Z,99852.75
2023-07-17T20:13:37.583Z,99849.19
2023-07-17T20:16:05.452Z,99839.63
2023-07-17T20:18:32.962Z,99853.59
2023-07-17T20:21:00.523Z,99846.84
2023-07-17T20:23:28.903Z,99842.44
2023-07-17T20:25:56.384Z,99855.09
2023-07-17T20:28:23.888Z,99853.88
2023-07-17T20:30:51.597Z,99866.41
2023-07-17T20:33:19.114Z,99866.13
2023-07-17T20:35:46.610Z,99870.78
2023-07-17T20:38:14.700Z,99878.44
2023-07-17T20:40:42.218Z,99879.28
2023-07-17T20:43:09.708Z,99887.78
2023-07-17T20:45:49.703Z,99883.03
2023-07-17T20:48:17.528Z,99891.06
2023-07-17T20:51:03.406Z,99898.75
2023-07-17T20:53:31.040Z,99914.97
2023-07-17T20:55:58.909Z,99913.31
2023-07-17T20:58:26.531Z,99914.66
2023-07-17T21:01:01.190Z,99908.78
2023-07-17T21:03:29.811Z,99906.25
2023-07-17T21:05:57.244Z,99907.00
2023-07-17T21:08:27.112Z,99913.28
2023-07-17T21:10:57.686Z,99910.75
2023-07-17T21:13:25.477Z,99924.19
2023-07-17T21:15:54.191Z,99919.44
2023-07-17T21:18:22.004Z,99929.94
2023-07-17T21:20:49.531Z,99930.81
2023-07-17T21:23:17.217Z,99935.88
2023-07-17T21:25:45.616Z,99936.91
2023-07-17T21:28:13.122Z,99935.75
2023-07-17T21:30:40.826Z,99943.38
2023-07-17T21:33:09.043Z,99938.97
2023-07-17T21:35:36.520Z,99943.88
2023-07-17T21:38:04.044Z,99945.38
2023-07-17T21:40:31.846Z,99942.41
2023-07-17T21:42:59.302Z,99945.81
2023-07-17T21:45:26.984Z,99939.03
2023-07-17T21:47:54.849Z,99942.41
2023-07-17T21:50:23.045Z,99947.50
2023-07-17T21:52:50.553Z,99940.75
2023-07-17T21:55:18.351Z,99939.19
2023-07-17T21:57:45.833Z,99947.63
2023-07-17T22:00:14.261Z,99949.88
2023-07-17T22:02:44.856Z,99947.84
2023-07-17T22:05:13.907Z,99956.13
2023-07-17T22:07:41.648Z,99955.63
2023-07-17T22:10:09.633Z,99955.63
2023-07-17T22:12:37.122Z,99958.50
2023-07-17T22:15:05.328Z,99963.22
2023-07-17T22:17:33.033Z,99963.41
2023-07-17T22:20:04.318Z,99973.88
2023-07-17T22:22:32.114Z,99975.94
2023-07-17T22:24:59.619Z,99968.81
2023-07-17T22:27:27.668Z,99983.03
2023-07-17T22:29:59.856Z,99981.34
2023-07-17T22:32:27.802Z,99986.41
2023-07-17T22:34:56.810Z,99985.94
2023-07-17T22:37:25.179Z,99983.38
2023-07-17T22:39:53.751Z,99993.87
2023-07-17T22:42:22.506Z,100004.28
2023-07-17T22:44:52.940Z,100011.78
2023-07-17T22:47:21.161Z,100004.34
2023-07-17T22:49:49.621Z,100014.50
2023-07-17T22:52:21.989Z,100003.34
2023-07-17T22:54:53.579Z,100004.72
2023-07-17T22:57:22.154Z,100019.59
2023-07-17T22:59:49.834Z,100018.94
2023-07-17T23:02:17.564Z,100027.72
2023-07-17T23:04:45.208Z,100020.63
2023-07-17T23:07:13.017Z,100024.97
2023-07-17T23:09:40.752Z,100030.37
2023-07-17T23:12:09.148Z,100034.13
2023-07-17T23:14:38.120Z,100034.47
2023-07-17T23:17:08.117Z,100040.69
2023-07-17T23:19:35.670Z,100039.00
2023-07-17T23:22:03.747Z,100031.91
2023-07-17T23:24:31.905Z,100036.78
2023-07-17T23:26:59.623Z,100032.03
2023-07-17T23:29:27.367Z,100043.75
2023-07-17T23:31:55.286Z,100051.00
2023-07-17T23:34:22.869Z,100042.03
2023-07-17T23:36:50.624Z,100050.31
2023-07-17T23:39:21.393Z,100057.06
2023-07-17T23:41:50.875Z,100060.72
2023-07-17T23:44:18.830Z,100061.69
2023-07-17T23:46:46.437Z,100049.50
2023-07-17T23:49:13.981Z,100050.81
2023-07-17T23:51:44.394Z,100060.97
2023-07-17T23:54:12.438Z,100055.91
2023-07-17T23:56:40.634Z,100049.38
2023-07-17T23:59:08.520Z,100056.72
